Time;durP1;ratioP1;P1;durP2;ratioP2;P2;SDS_P1;SDS_P2;PMS_P1;PMS_P2;Temp;Humidity;BMP_temperature;BMP_pressure;BME280_temperature;BME280_humidity;BME280_pressure;Samples;Min_cycle;Max_cycle;Signal;HPM_P1;HPM_P2
2023/10/16 00:02:22;;;;;;;4.68;0.65;;;7.80;99.90;;;;;;5070325;28;20040;-54
2023/10/16 00:04:49;;;;;;;1.98;0.70;;;7.40;99.90;;;;;;5070597;28;20483;-54
2023/10/16 00:07:20;;;;;;;2.13;0.55;;;7.70;99.90;;;;;;5070431;28;20041;-52
2023/10/16 00:09:46;;;;;;;0.88;0.45;;;7.50;99.90;;;;;;5070502;28;20037;-52
2023/10/16 00:12:12;;;;;;;1.80;0.77;;;7.70;99.90;;;;;;5069968;28;20068;-54
2023/10/16 00:14:38;;;;;;;4.32;0.70;;;7.50;99.90;;;;;;5070558;28;20075;-54
2023/10/16 00:17:07;;;;;;;4.80;0.63;;;7.70;99.90;;;;;;5070217;28;20036;-53
2023/10/16 00:19:34;;;;;;;2.33;0.70;;;7.40;99.90;;;;;;5042595;28;20124;-53
2023/10/16 00:22:01;;;;;;;7.50;0.90;;;7.70;99.90;;;;;;5091818;28;20040;-54
2023/10/16 00:24:28;;;;;;;5.07;1.00;;;7.40;99.90;;;;;;5072054;28;20076;-55
2023/10/16 00:26:54;;;;;;;4.97;1.00;;;7.60;99.90;;;;;;5078806;28;20400;-54
2023/10/16 00:29:19;;;;;;;4.35;0.80;;;7.60;99.90;;;;;;5071154;28;20043;-55
2023/10/16 00:31:46;;;;;;;6.60;1.30;;;7.70;99.90;;;;;;5079030;28;20104;-54
2023/10/16 00:34:19;;;;;;;4.00;1.50;;;7.30;99.90;;;;;;5094220;28;20055;-52
2023/10/16 00:36:46;;;;;;;5.38;1.55;;;7.50;99.90;;;;;;5093971;28;20043;-51
2023/10/16 00:39:15;;;;;;;8.35;1.58;;;7.60;99.90;;;;;;5094214;28;20379;-54
2023/10/16 00:41:43;;;;;;;7.78;2.63;;;7.40;99.90;;;;;;5094087;28;20036;-54
2023/10/16 00:44:09;;;;;;;11.30;2.10;;;7.60;99.90;;;;;;5059683;28;20048;-53
2023/10/16 00:46:38;;;;;;;4.93;1.60;;;7.40;99.90;;;;;;5073694;28;20036;-54
2023/10/16 00:49:05;;;;;;;5.60;1.90;;;7.60;99.90;;;;;;5073581;28;20066;-54
2023/10/16 00:51:38;;;;;;;5.85;1.98;;;7.20;99.90;;;;;;5073234;28;20492;-53
2023/10/16 00:54:15;;;;;;;6.40;2.03;;;7.40;99.90;;;;;;5051928;28;20115;-54
2023/10/16 00:56:43;;;;;;;6.68;2.10;;;7.50;99.90;;;;;;5073689;28;20116;-54
2023/10/16 00:59:15;;;;;;;7.55;2.17;;;7.20;99.90;;;;;;5073326;28;20040;-52
2023/10/16 01:01:43;;;;;;;5.78;2.28;;;7.40;99.90;;;;;;5073549;28;20043;-53
2023/10/16 01:04:10;;;;;;;7.28;3.90;;;7.30;99.90;;;;;;5055555;28;20039;-54
2023/10/16 01:06:36;;;;;;;7.30;2.00;;;7.30;99.90;;;;;;5073702;28;20046;-52
2023/10/16 01:09:08;;;;;;;7.85;2.50;;;7.50;99.90;;;;;;5073389;28;20408;-52
2023/10/16 01:11:37;;;;;;;10.95;2.50;;;7.50;99.90;;;;;;5073818;28;20034;-54
2023/10/16 01:14:04;;;;;;;10.15;4.55;;;7.50;99.90;;;;;;5055500;28;20111;-54
2023/10/16 01:16:30;;;;;;;6.70;2.30;;;7.60;99.90;;;;;;5073381;28;20040;-55
2023/10/16 01:19:00;;;;;;;10.88;2.92;;;7.30;99.90;;;;;;5073117;28;20115;-52
2023/10/16 01:21:28;;;;;;;7.20;2.70;;;7.50;99.90;;;;;;5055454;28;20056;-52
2023/10/16 01:23:55;;;;;;;11.32;5.10;;;7.20;99.90;;;;;;5073244;28;20265;-54
2023/10/16 01:26:21;;;;;;;6.82;2.70;;;7.60;99.90;;;;;;5073219;28;20634;-54
2023/10/16 01:28:47;;;;;;;7.20;2.38;;;7.60;99.90;;;;;;5073115;28;20128;-53
2023/10/16 01:31:13;;;;;;;14.23;2.88;;;7.30;99.90;;;;;;5072902;28;20123;-54
2023/10/16 01:33:44;;;;;;;11.02;3.67;;;7.20;99.90;;;;;;5072838;28;20472;-52
2023/10/16 01:36:10;;;;;;;10.20;3.15;;;7.50;99.90;;;;;;5073009;28;20040;-51
2023/10/16 01:38:36;;;;;;;5.88;2.55;;;7.20;99.90;;;;;;5072894;28;20084;-54
2023/10/16 01:41:05;;;;;;;10.75;4.82;;;7.40;99.90;;;;;;5072885;28;20466;-52
2023/10/16 01:43:37;;;;;;;8.48;2.83;;;7.20;99.90;;;;;;5072613;28;20036;-49
2023/10/16 01:46:08;;;;;;;12.80;3.08;;;7.40;99.90;;;;;;5073100;28;20033;-52
2023/10/16 01:48:40;;;;;;;8.20;2.70;;;7.50;99.90;;;;;;5072421;28;20074;-53
2023/10/16 01:51:09;;;;;;;8.45;3.00;;;7.60;99.90;;;;;;5071962;28;20152;-53
2023/10/16 01:53:41;;;;;;;9.60;4.13;;;7.30;99.90;;;;;;5072315;28;20041;-50
2023/10/16 01:56:13;;;;;;;7.88;2.45;;;7.60;99.90;;;;;;5072965;28;20032;-54
2023/10/16 01:58:43;;;;;;;11.57;4.45;;;7.70;99.90;;;;;;5072233;28;20099;-54
2023/10/16 02:01:10;;;;;;;7.38;3.08;;;7.80;99.90;;;;;;5072526;28;20487;-51
2023/10/16 02:03:37;;;;;;;9.93;4.80;;;7.50;99.90;;;;;;5072358;28;20036;-53
2023/10/16 02:06:03;;;;;;;6.30;2.58;;;7.80;99.90;;;;;;5072206;28;20028;-53
2023/10/16 02:08:29;;;;;;;8.00;2.85;;;7.50;99.90;;;;;;5073142;28;20102;-51
2023/10/16 02:10:54;;;;;;;9.63;4.57;;;7.50;99.90;;;;;;5072266;28;20044;-52
2023/10/16 02:13:20;;;;;;;5.75;2.50;;;7.70;99.90;;;;;;5072104;28;20106;-52
2023/10/16 02:15:47;;;;;;;6.57;2.45;;;7.90;99.90;;;;;;5072310;28;20040;-54
2023/10/16 02:18:22;;;;;;;7.53;2.45;;;7.50;99.90;;;;;;5072046;28;20069;-54
2023/10/16 02:20:49;;;;;;;8.18;2.25;;;7.70;99.90;;;;;;5071598;28;20172;-53
2023/10/16 02:23:15;;;;;;;8.15;2.60;;;7.90;99.90;;;;;;5072358;28;20037;-52
2023/10/16 02:25:41;;;;;;;6.70;2.65;;;7.50;99.90;;;;;;5092032;28;20456;-53
2023/10/16 02:28:08;;;;;;;6.85;2.10;;;8.10;99.90;;;;;;5092366;28;20067;-52
2023/10/16 02:30:38;;;;;;;5.18;1.95;;;8.00;99.90;;;;;;5090035;28;20051;-53
2023/10/16 02:35:47;;;;;;;5.07;1.83;;;7.60;99.90;;;;;;5071705;28;20437;-54
2023/10/16 02:38:23;;;;;;;4.88;1.83;;;7.70;99.90;;;;;;5071962;28;20446;-53
2023/10/16 02:40:52;;;;;;;9.55;2.00;;;7.90;99.90;;;;;;5072090;28;20048;-51
2023/10/16 02:43:20;;;;;;;8.90;1.83;;;7.60;99.90;;;;;;5071073;28;20047;-53
2023/10/16 02:45:47;;;;;;;7.78;1.92;;;7.60;99.90;;;;;;5053614;28;20050;-51
2023/10/16 02:48:16;;;;;;;6.50;2.40;;;7.80;99.90;;;;;;5071347;28;20040;-50
2023/10/16 02:50:54;;;;;;;5.13;1.90;;;7.80;99.90;;;;;;5071138;28;20044;-53
2023/10/16 02:53:24;;;;;;;4.55;1.40;;;7.70;99.90;;;;;;5050373;28;20044;-54
2023/10/16 02:56:08;;;;;;;6.75;1.40;;;7.50;99.90;;;;;;5070907;28;20048;-54
2023/10/16 02:58:42;;;;;;;6.03;1.67;;;7.80;99.90;;;;;;5071494;28;20111;-53
2023/10/16 03:01:14;;;;;;;6.05;1.55;;;8.00;99.90;;;;;;5071652;28;20111;-54
2023/10/16 03:03:43;;;;;;;5.90;1.40;;;7.70;99.90;;;;;;5071336;28;20320;-53
2023/10/16 03:06:10;;;;;;;7.15;1.45;;;7.70;99.90;;;;;;5053296;28;20389;-54
2023/10/16 03:08:36;;;;;;;6.68;1.52;;;7.90;99.90;;;;;;5070770;28;20068;-54
2023/10/16 03:11:07;;;;;;;5.07;1.33;;;7.90;99.90;;;;;;5053389;28;20036;-53
2023/10/16 03:13:35;;;;;;;7.57;1.20;;;8.10;99.90;;;;;;5071421;28;20037;-52
2023/10/16 03:16:11;;;;;;;4.22;1.25;;;8.10;99.90;;;;;;5070916;28;20056;-53
2023/10/16 03:18:43;;;;;;;3.58;1.00;;;7.70;99.90;;;;;;5070578;28;20051;-52
2023/10/16 03:23:46;;;;;;;4.95;1.15;;;7.90;99.90;;;;;;5052815;28;20117;-54
2023/10/16 03:26:25;;;;;;;6.35;0.95;;;8.10;99.90;;;;;;5071014;28;20396;-54
2023/10/16 03:28:53;;;;;;;5.45;1.20;;;8.10;99.90;;;;;;5070916;28;20041;-54
2023/10/16 03:31:19;;;;;;;4.32;1.02;;;8.00;99.90;;;;;;5052938;28;20079;-54
2023/10/16 03:33:45;;;;;;;4.25;1.10;;;7.80;99.90;;;;;;5070800;28;20053;-54
2023/10/16 03:36:11;;;;;;;7.75;1.95;;;7.70;99.90;;;;;;5070683;28;20372;-53
2023/10/16 03:38:37;;;;;;;5.43;1.20;;;8.10;99.90;;;;;;5070313;28;20036;-53
2023/10/16 03:41:12;;;;;;;5.00;2.22;;;8.10;99.90;;;;;;5052634;28;20044;-54
2023/10/16 03:43:42;;;;;;;4.25;1.00;;;7.70;99.90;;;;;;5070629;28;20476;-52
2023/10/16 03:46:10;;;;;;;8.07;1.33;;;7.80;99.90;;;;;;5070837;28;20407;-54
2023/10/16 03:48:38;;;;;;;9.45;3.17;;;7.90;99.90;;;;;;5070833;28;20048;-53
2023/10/16 03:51:07;;;;;;;5.07;1.13;;;8.00;99.90;;;;;;5052113;28;20082;-51
2023/10/16 03:53:35;;;;;;;6.10;1.38;;;8.00;99.90;;;;;;5070077;28;20400;-54
2023/10/16 03:56:02;;;;;;;6.68;1.60;;;7.90;99.90;;;;;;5071267;28;20103;-54
2023/10/16 03:58:33;;;;;;;5.03;1.73;;;7.60;99.90;;;;;;5070300;28;20139;-54
2023/10/16 04:01:07;;;;;;;5.85;1.20;;;7.80;99.90;;;;;;5049790;28;20029;-53
2023/10/16 04:03:46;;;;;;;4.03;1.52;;;7.70;99.90;;;;;;5070887;28;20051;-54
2023/10/16 04:06:22;;;;;;;7.15;1.90;;;8.00;99.90;;;;;;5070263;28;20064;-53
2023/10/16 04:08:50;;;;;;;8.73;1.77;;;7.70;99.90;;;;;;5070798;28;20041;-53
2023/10/16 04:11:17;;;;;;;5.60;1.23;;;7.70;99.90;;;;;;5070082;28;20047;-53
2023/10/16 04:13:48;;;;;;;10.07;1.60;;;7.90;99.90;;;;;;5070564;28;20048;-54
2023/10/16 04:21:43;;;;;;;5.50;1.33;;;7.90;99.90;;;;;;5070039;28;20074;-52
2023/10/16 04:29:28;;;;;;;5.78;1.48;;;7.50;99.90;;;;;;5070512;28;20098;-53
2023/10/16 04:34:32;;;;;;;7.63;2.90;;;7.50;99.90;;;;;;5051495;28;20110;-51
2023/10/16 05:03:35;;;;;;;4.07;1.60;;;7.80;99.90;;;;;;5069516;28;20040;-53
2023/10/16 05:06:14;;;;;;;7.45;1.80;;;7.70;99.90;;;;;;5072327;28;20077;-54
2023/10/16 05:19:46;;;;;;;;;;;7.40;99.90;;;;;;5073242;28;20048;-53
2023/10/16 06:14:17;;;;;;;12.27;6.50;;;8.00;99.90;;;;;;5072074;28;20048;-52
2023/10/16 06:16:53;;;;;;;14.05;3.67;;;7.60;99.90;;;;;;5071003;28;20041;-53
2023/10/16 06:19:21;;;;;;;13.85;3.80;;;8.00;99.90;;;;;;5054530;28;20185;-52
2023/10/16 06:21:56;;;;;;;9.15;3.10;;;7.60;99.90;;;;;;5071476;28;20041;-54
2023/10/16 06:24:28;;;;;;;8.35;3.00;;;8.10;99.90;;;;;;5054276;28;20124;-53
2023/10/16 06:26:57;;;;;;;10.88;3.45;;;7.90;99.90;;;;;;5072032;28;20106;-53
2023/10/16 06:29:36;;;;;;;9.57;3.67;;;7.70;99.90;;;;;;5071848;28;20038;-52
2023/10/16 06:32:07;;;;;;;12.02;3.60;;;7.80;99.90;;;;;;5051330;28;20090;-53
2023/10/16 06:34:34;;;;;;;9.05;3.92;;;8.10;99.90;;;;;;5071511;28;20036;-54
2023/10/16 06:37:06;;;;;;;13.48;3.47;;;7.80;99.90;;;;;;5071691;28;20132;-53
2023/10/16 06:39:41;;;;;;;11.70;3.45;;;7.80;99.90;;;;;;5047701;28;20051;-53
2023/10/16 06:42:14;;;;;;;12.40;7.18;;;8.00;99.90;;;;;;5092102;28;20395;-54
2023/10/16 06:44:42;;;;;;;10.93;3.70;;;7.80;99.90;;;;;;5057044;28;20072;-53
2023/10/16 06:47:12;;;;;;;10.27;3.20;;;8.20;99.90;;;;;;5078633;28;20044;-53
2023/10/16 06:49:38;;;;;;;9.73;3.67;;;8.40;99.90;;;;;;5041084;28;20135;-54
2023/10/16 06:52:06;;;;;;;14.55;3.50;;;8.10;99.90;;;;;;5058372;28;20048;-54
2023/10/16 06:54:37;;;;;;;11.52;6.65;;;8.10;99.90;;;;;;5058372;28;20129;-54
2023/10/16 06:57:12;;;;;;;11.93;3.45;;;8.00;99.90;;;;;;5039567;28;20051;-53
2023/10/16 06:59:46;;;;;;;8.18;3.10;;;8.20;99.90;;;;;;5039785;28;20029;-51
2023/10/16 07:02:15;;;;;;;11.38;4.05;;;8.50;99.90;;;;;;5060016;28;20045;-53
2023/10/16 07:04:47;;;;;;;11.98;6.57;;;8.10;99.90;;;;;;5060740;28;20779;-54
2023/10/16 07:07:16;;;;;;;12.38;3.83;;;8.20;99.90;;;;;;5061074;28;20040;-54
2023/10/16 07:09:49;;;;;;;10.88;3.67;;;8.20;99.90;;;;;;5060222;28;20036;-51
2023/10/16 07:12:19;;;;;;;9.43;3.42;;;8.60;99.90;;;;;;5057065;28;20116;-52
2023/10/16 07:14:55;;;;;;;11.00;3.63;;;8.60;99.90;;;;;;5038942;28;20047;-54
2023/10/16 07:17:22;;;;;;;9.15;3.42;;;8.60;99.90;;;;;;5057859;28;22027;-52
2023/10/16 07:19:48;;;;;;;13.07;3.92;;;8.30;99.90;;;;;;5056413;28;20458;-54
2023/10/16 07:22:16;;;;;;;9.43;3.40;;;8.40;99.90;;;;;;5057783;28;20040;-54
2023/10/16 07:24:42;;;;;;;11.55;3.85;;;8.80;99.90;;;;;;5057667;28;20072;-52
2023/10/16 07:27:12;;;;;;;9.52;3.40;;;8.40;99.90;;;;;;5059408;28;20044;-54
2023/10/16 07:29:44;;;;;;;9.85;3.65;;;8.70;99.90;;;;;;5056975;28;20040;-53
2023/10/16 07:32:09;;;;;;;10.10;3.35;;;8.80;99.90;;;;;;5056189;28;20476;-52
2023/10/16 07:34:37;;;;;;;13.75;4.10;;;8.50;99.90;;;;;;5059640;28;20048;-54
2023/10/16 07:37:07;;;;;;;8.43;3.38;;;8.50;99.90;;;;;;5055780;28;20325;-52
2023/10/16 07:39:33;;;;;;;13.95;3.33;;;9.00;99.90;;;;;;5058980;28;20040;-51
2023/10/16 07:42:01;;;;;;;9.15;3.78;;;8.70;99.90;;;;;;5058316;28;20089;-51
2023/10/16 07:44:28;;;;;;;9.70;3.08;;;8.70;99.90;;;;;;5060548;28;20468;-53
2023/10/16 07:46:54;;;;;;;10.48;3.10;;;8.60;99.90;;;;;;5055865;28;20353;-51
2023/10/16 07:49:25;;;;;;;5.45;2.67;;;9.00;99.90;;;;;;5044342;28;20033;-54
2023/10/16 07:51:52;;;;;;;9.27;2.90;;;8.80;99.90;;;;;;5057408;28;20147;-53
2023/10/16 07:54:20;;;;;;;8.25;2.65;;;8.90;99.90;;;;;;5056133;28;20037;-53
2023/10/16 07:56:51;;;;;;;7.88;2.95;;;9.10;99.90;;;;;;5054775;28;20025;-52
2023/10/16 07:59:20;;;;;;;7.03;3.25;;;9.30;99.90;;;;;;5054490;28;20037;-52
2023/10/16 08:01:52;;;;;;;11.40;3.15;;;9.20;99.90;;;;;;5051729;28;20383;-55
2023/10/16 08:07:46;;;;;;;7.45;3.22;;;9.50;99.90;;;;;;5053066;28;20113;-55
2023/10/16 08:12:18;;;;;;;8.55;5.03;;;9.60;99.90;;;;;;5053577;28;20112;-52
2023/10/16 08:14:45;;;;;;;9.93;4.60;;;9.50;99.90;;;;;;5052154;28;20226;-53
2023/10/16 08:17:17;;;;;;;7.97;2.53;;;9.70;99.90;;;;;;5055198;28;20037;-52
2023/10/16 08:19:44;;;;;;;6.43;2.70;;;9.70;99.90;;;;;;5053817;28;20047;-53
2023/10/16 08:22:13;;;;;;;10.93;4.72;;;9.50;99.90;;;;;;5053950;28;20123;-49
2023/10/16 08:24:43;;;;;;;8.02;3.97;;;9.50;99.90;;;;;;5040448;28;20040;-54
2023/10/16 08:27:39;;;;;;;8.38;3.78;;;9.40;99.90;;;;;;5053047;28;21191;-54
2023/10/16 08:30:17;;;;;;;10.27;1.88;;;9.90;99.90;;;;;;5049603;28;20055;-53
2023/10/16 08:35:19;;;;;;;5.82;1.83;;;10.00;99.90;;;;;;5037540;28;20130;-51
2023/10/16 08:37:55;;;;;;;11.63;2.45;;;9.60;99.90;;;;;;5049589;28;20454;-54
2023/10/16 08:40:23;;;;;;;8.15;2.20;;;10.10;99.90;;;;;;5058124;28;20032;-53
2023/10/16 08:43:09;;;;;;;4.05;1.50;;;10.00;99.90;;;;;;5057669;28;20531;-53
2023/10/16 08:45:39;;;;;;;7.00;1.70;;;9.80;99.90;;;;;;5061338;28;20520;-55
2023/10/16 08:48:07;;;;;;;9.10;1.55;;;10.00;99.90;;;;;;5059887;28;20041;-53
2023/10/16 08:50:43;;;;;;;6.18;1.60;;;9.90;99.90;;;;;;5058033;28;20032;-53
2023/10/16 08:53:30;;;;;;;7.28;1.42;;;10.00;99.90;;;;;;5055729;28;20056;-52
2023/10/16 08:56:07;;;;;;;6.22;1.55;;;10.00;99.90;;;;;;5055752;28;20036;-53
2023/10/16 08:58:40;;;;;;;7.13;1.73;;;10.50;99.90;;;;;;5056142;28;20381;-54
2023/10/16 09:01:07;;;;;;;5.97;2.28;;;10.20;99.90;;;;;;5056461;28;20516;-55
2023/10/16 09:03:56;;;;;;;11.82;3.03;;;10.60;99.90;;;;;;5039680;28;20066;-53
2023/10/16 09:06:23;;;;;;;9.00;3.30;;;10.40;99.90;;;;;;5057041;28;20029;-53
2023/10/16 09:08:50;;;;;;;7.47;3.20;;;10.30;99.90;;;;;;5056995;28;20041;-53
2023/10/16 09:11:18;;;;;;;11.48;3.90;;;10.80;99.90;;;;;;5055042;28;20036;-54
2023/10/16 09:13:49;;;;;;;9.82;3.70;;;10.80;99.90;;;;;;5060345;28;20045;-54
2023/10/16 09:16:15;;;;;;;6.68;2.42;;;10.40;99.90;;;;;;5057979;28;20036;-55
2023/10/16 09:18:42;;;;;;;8.73;2.55;;;10.90;99.90;;;;;;5056843;28;20060;-54
2023/10/16 09:21:13;;;;;;;6.03;2.42;;;10.60;99.90;;;;;;5056287;28;20483;-53
2023/10/16 09:23:53;;;;;;;9.23;2.50;;;10.70;99.90;;;;;;5045626;28;20033;-54
2023/10/16 09:26:32;;;;;;;10.70;2.72;;;10.90;99.90;;;;;;5057619;28;20392;-54
2023/10/16 09:29:04;;;;;;;8.00;2.38;;;10.70;99.90;;;;;;5055704;28;20036;-54
2023/10/16 09:31:31;;;;;;;6.78;2.60;;;10.70;99.90;;;;;;5043671;28;20052;-54
2023/10/16 09:33:57;;;;;;;8.48;2.85;;;11.10;99.90;;;;;;5061012;28;20516;-55
2023/10/16 09:36:22;;;;;;;7.80;2.72;;;11.20;99.90;;;;;;5060879;28;20071;-54
2023/10/16 09:38:54;;;;;;;5.88;2.28;;;11.00;99.90;;;;;;5050477;28;20076;-54
2023/10/16 09:43:56;;;;;;;7.40;2.17;;;11.40;99.90;;;;;;5057332;28;20036;-54
2023/10/16 09:47:25;;;;;;;6.88;1.85;;;11.30;99.90;;;;;;5052775;28;20033;-54
2023/10/16 09:49:23;;;;;;;8.98;1.80;;;11.60;99.90;;;;;;5053324;28;20207;-54
2023/10/16 09:52:03;;;;;;;7.05;1.60;;;11.50;99.90;;;;;;5042002;28;20057;-53
2023/10/16 09:54:30;;;;;;;5.68;1.40;;;11.80;99.90;;;;;;5052425;28;20040;-57
2023/10/16 09:57:01;;;;;;;7.00;1.70;;;11.80;99.90;;;;;;5071668;28;20533;-56
2023/10/16 09:59:33;;;;;;;6.85;1.70;;;11.90;99.90;;;;;;5071016;28;20124;-54
2023/10/16 10:02:08;;;;;;;5.15;1.10;;;11.80;99.90;;;;;;5071711;28;20036;-54
2023/10/16 10:04:35;;;;;;;7.13;1.08;;;11.80;99.90;;;;;;5068836;28;20036;-55
2023/10/16 10:07:13;;;;;;;5.63;1.60;;;12.00;99.90;;;;;;5057807;28;20045;-56
2023/10/16 10:09:45;;;;;;;10.68;2.50;;;11.80;99.90;;;;;;5050105;28;20551;-56
2023/10/16 10:12:24;;;;;;;6.03;1.20;;;11.80;99.90;;;;;;5051727;28;20491;-55
2023/10/16 10:15:17;;;;;;;5.43;1.58;;;11.90;99.90;;;;;;5071530;28;20048;-55
2023/10/16 10:17:46;;;;;;;4.43;1.15;;;12.20;99.90;;;;;;5071097;28;20036;-54
2023/10/16 10:20:23;;;;;;;8.05;1.02;;;12.30;99.90;;;;;;5070625;28;20044;-56
2023/10/16 10:22:53;;;;;;;6.22;1.10;;;12.70;99.90;;;;;;5071129;28;20543;-55
2023/10/16 10:25:26;;;;;;;5.93;0.88;;;12.90;99.90;;;;;;5070592;28;20392;-55
2023/10/16 10:28:09;;;;;;;5.97;1.08;;;13.00;99.90;;;;;;5051047;28;20049;-55
2023/10/16 10:30:43;;;;;;;4.57;0.85;;;13.20;99.90;;;;;;5070703;28;20391;-56
2023/10/16 10:33:11;;;;;;;6.25;1.10;;;13.20;99.90;;;;;;5070919;28;20115;-56
2023/10/16 10:35:40;;;;;;;5.20;1.02;;;13.30;99.90;;;;;;5070979;28;20510;-55
2023/10/16 10:38:24;;;;;;;7.70;1.23;;;13.20;99.90;;;;;;5071027;28;20045;-55
2023/10/16 10:41:10;;;;;;;9.85;1.33;;;13.20;99.90;;;;;;5061868;28;20041;-55
2023/10/16 10:43:48;;;;;;;5.97;1.10;;;13.40;99.90;;;;;;5058141;28;20132;-55
2023/10/16 10:46:28;;;;;;;6.97;1.17;;;13.50;99.90;;;;;;5053711;28;20112;-54
2023/10/16 10:48:54;;;;;;;8.05;1.33;;;13.60;99.90;;;;;;5052016;28;20055;-53
2023/10/16 10:51:21;;;;;;;9.80;1.10;;;13.60;99.90;;;;;;5051016;28;20040;-55
2023/10/16 10:54:06;;;;;;;12.75;0.98;;;13.50;99.90;;;;;;5083515;28;20880;-56
2023/10/16 10:56:48;;;;;;;7.07;1.00;;;13.50;99.90;;;;;;5084559;28;20125;-55
2023/10/16 10:59:41;;;;;;;7.22;1.33;;;13.50;99.90;;;;;;5080483;28;20028;-56
2023/10/16 11:04:46;;;;;;;6.78;1.52;;;13.60;99.90;;;;;;5084279;28;20131;-55
2023/10/16 11:07:23;;;;;;;9.60;1.65;;;13.50;99.90;;;;;;5085250;28;20131;-53
2023/10/16 11:09:51;;;;;;;7.18;1.13;;;13.50;99.90;;;;;;5084961;28;20052;-54
2023/10/16 11:12:16;;;;;;;9.40;2.25;;;13.50;99.90;;;;;;5086853;28;20430;-56
2023/10/16 11:14:42;;;;;;;9.38;2.25;;;13.50;99.90;;;;;;5084670;28;20085;-55
2023/10/16 11:17:08;;;;;;;13.98;1.83;;;13.50;99.90;;;;;;5083030;28;20093;-54
2023/10/16 11:19:49;;;;;;;9.27;1.50;;;13.50;99.90;;;;;;5085191;28;20028;-54
2023/10/16 11:22:27;;;;;;;5.47;1.00;;;13.40;99.90;;;;;;5084061;28;20051;-56
2023/10/16 11:24:54;;;;;;;6.63;1.25;;;13.20;99.90;;;;;;5086613;28;20067;-55
2023/10/16 11:27:20;;;;;;;8.20;0.88;;;13.10;99.90;;;;;;5087358;28;20048;-55
2023/10/16 11:29:52;;;;;;;7.65;1.10;;;12.90;99.90;;;;;;5086097;28;20029;-55
2023/10/16 11:32:25;;;;;;;5.80;1.00;;;12.90;99.90;;;;;;5087577;28;20383;-54
2023/10/16 11:34:59;;;;;;;6.47;1.30;;;12.70;99.90;;;;;;5087339;28;20125;-55
2023/10/16 11:37:25;;;;;;;4.78;1.33;;;12.70;99.90;;;;;;5086331;28;20040;-54
2023/10/16 11:39:56;;;;;;;5.22;1.00;;;12.60;99.90;;;;;;5085499;28;20127;-55
2023/10/16 11:42:24;;;;;;;8.27;1.13;;;12.50;99.90;;;;;;5085109;28;20036;-55
2023/10/16 11:44:51;;;;;;;6.10;1.63;;;12.50;99.90;;;;;;5085741;28;20594;-55
2023/10/16 11:47:18;;;;;;;9.35;1.70;;;12.50;99.90;;;;;;5084964;28;20043;-55
2023/10/16 11:49:54;;;;;;;5.07;0.88;;;12.50;99.90;;;;;;5086497;28;20036;-56
2023/10/16 11:52:22;;;;;;;8.02;1.10;;;12.60;99.90;;;;;;5085836;28;20052;-54
2023/10/16 11:54:52;;;;;;;6.05;1.40;;;12.70;99.90;;;;;;5086392;28;20041;-56
2023/10/16 11:57:17;;;;;;;8.57;1.25;;;13.00;99.90;;;;;;5087052;28;20039;-54
2023/10/16 11:59:44;;;;;;;7.20;1.05;;;13.20;99.90;;;;;;5083549;28;20040;-55
2023/10/16 12:02:14;;;;;;;11.45;1.40;;;13.40;99.90;;;;;;5086002;28;20040;-56
2023/10/16 12:04:41;;;;;;;6.63;1.40;;;13.60;99.90;;;;;;5076623;28;20311;-55
2023/10/16 12:07:13;;;;;;;9.00;1.77;;;13.70;99.90;;;;;;5072688;28;20089;-52
2023/10/16 12:09:42;;;;;;;11.75;3.10;;;13.80;99.90;;;;;;5067506;28;20050;-55
2023/10/16 12:12:19;;;;;;;9.93;2.90;;;14.00;99.90;;;;;;5068313;28;20040;-55
2023/10/16 12:14:48;;;;;;;6.85;1.55;;;14.10;99.90;;;;;;5071128;28;20043;-56
2023/10/16 12:17:15;;;;;;;8.15;1.65;;;14.30;99.90;;;;;;5072612;28;20185;-56
2023/10/16 12:19:41;;;;;;;7.95;1.50;;;14.50;99.90;;;;;;5073012;28;20111;-55
2023/10/16 12:22:10;;;;;;;8.48;2.00;;;14.70;99.90;;;;;;5072270;28;20033;-56
2023/10/16 12:24:36;;;;;;;4.95;1.08;;;14.90;99.90;;;;;;5068947;28;20064;-55
2023/10/16 12:27:01;;;;;;;9.30;1.52;;;15.00;99.90;;;;;;5066970;28;20064;-55
2023/10/16 12:29:28;;;;;;;5.57;1.38;;;15.10;99.90;;;;;;5071307;28;20032;-55
2023/10/16 12:31:55;;;;;;;7.65;2.10;;;15.20;99.90;;;;;;5072132;28;20068;-54
2023/10/16 12:34:22;;;;;;;7.13;1.30;;;15.30;99.90;;;;;;5071775;28;20472;-54
2023/10/16 12:36:49;;;;;;;4.97;1.23;;;15.40;99.90;;;;;;5071821;28;20400;-53
2023/10/16 12:39:35;;;;;;;6.38;1.48;;;15.40;99.90;;;;;;5072214;28;20613;-56
2023/10/16 12:42:06;;;;;;;6.57;1.23;;;15.40;99.90;;;;;;5072441;28;20063;-56
2023/10/16 12:44:32;;;;;;;6.05;1.38;;;15.50;99.90;;;;;;5072366;28;20492;-55
2023/10/16 12:46:58;;;;;;;7.45;1.60;;;15.60;99.90;;;;;;5072357;28;20044;-55
2023/10/16 12:49:25;;;;;;;6.80;1.27;;;15.80;99.90;;;;;;5072325;28;20040;-56
2023/10/16 12:51:51;;;;;;;4.70;1.17;;;15.80;99.90;;;;;;5070633;28;20127;-56
2023/10/16 12:54:19;;;;;;;5.60;1.20;;;15.90;99.90;;;;;;5072969;28;20124;-55
2023/10/16 12:56:45;;;;;;;4.82;1.10;;;16.00;99.90;;;;;;5072993;28;20072;-55
2023/10/16 12:59:11;;;;;;;5.88;1.20;;;15.90;99.90;;;;;;5072548;28;20070;-55
2023/10/16 13:01:38;;;;;;;3.55;0.90;;;16.00;99.90;;;;;;5072928;28;20070;-56
2023/10/16 13:04:25;;;;;;;4.63;0.98;;;16.10;99.90;;;;;;5072847;28;20110;-54
2023/10/16 13:06:50;;;;;;;5.72;1.13;;;16.10;99.90;;;;;;5072625;28;20109;-55
2023/10/16 13:09:17;;;;;;;8.25;1.30;;;15.90;99.90;;;;;;5072662;28;20044;-53
2023/10/16 13:11:45;;;;;;;5.20;0.90;;;15.80;99.90;;;;;;5072328;28;20037;-54
2023/10/16 13:14:14;;;;;;;5.38;1.00;;;15.80;99.90;;;;;;5072170;28;20063;-56
2023/10/16 13:16:40;;;;;;;7.95;1.60;;;15.70;99.90;;;;;;5071821;28;20444;-54
2023/10/16 13:19:09;;;;;;;5.40;1.10;;;15.70;99.90;;;;;;5072283;28;20044;-54
2023/10/16 13:21:38;;;;;;;4.03;1.00;;;15.70;99.90;;;;;;5072050;28;20083;-54
2023/10/16 13:24:12;;;;;;;8.85;1.05;;;15.70;99.90;;;;;;5072056;28;20394;-56
2023/10/16 13:26:39;;;;;;;5.25;1.20;;;15.60;99.90;;;;;;5071174;28;20048;-55
2023/10/16 13:29:11;;;;;;;7.30;1.10;;;15.50;99.90;;;;;;5072078;28;20047;-55
2023/10/16 13:31:45;;;;;;;8.52;1.30;;;15.60;99.90;;;;;;5071209;28;20043;-56
2023/10/16 13:34:13;;;;;;;8.25;0.95;;;15.50;99.90;;;;;;5069204;28;20040;-55
2023/10/16 13:36:42;;;;;;;3.80;1.02;;;15.40;99.90;;;;;;5070365;28;20452;-56
2023/10/16 13:39:08;;;;;;;6.35;1.38;;;15.30;99.90;;;;;;5068617;28;20472;-55
2023/10/16 13:41:55;;;;;;;6.68;1.00;;;15.20;99.90;;;;;;5067845;28;20028;-55
2023/10/16 13:44:23;;;;;;;5.35;0.90;;;15.10;99.90;;;;;;5067660;28;20059;-56
2023/10/16 13:46:50;;;;;;;5.78;1.25;;;15.00;99.90;;;;;;5070115;28;20037;-53
2023/10/16 13:49:17;;;;;;;5.68;1.20;;;14.90;99.90;;;;;;5070896;28;20169;-55
2023/10/16 13:51:46;;;;;;;4.78;1.30;;;14.90;99.90;;;;;;5069789;28;20044;-56
2023/10/16 13:54:12;;;;;;;5.85;0.80;;;14.80;99.90;;;;;;5067694;28;20163;-57
2023/10/16 13:56:42;;;;;;;6.70;1.20;;;14.80;99.90;;;;;;5071413;28;20099;-54
2023/10/16 13:59:08;;;;;;;5.05;1.13;;;14.70;99.90;;;;;;5069610;28;20480;-53
2023/10/16 14:01:42;;;;;;;4.97;1.10;;;14.70;99.90;;;;;;5068800;28;20036;-56
2023/10/16 14:04:16;;;;;;;4.80;0.90;;;14.60;99.90;;;;;;5070511;28;20141;-54
2023/10/16 14:06:51;;;;;;;8.38;1.23;;;14.50;99.90;;;;;;5070791;28;20036;-55
2023/10/16 14:09:21;;;;;;;5.50;0.95;;;14.50;99.90;;;;;;5065273;28;20515;-55
2023/10/16 14:11:48;;;;;;;7.78;1.00;;;14.50;99.90;;;;;;5069236;28;20159;-65
2023/10/16 14:14:18;;;;;;;5.15;1.25;;;14.50;99.90;;;;;;5069685;28;20040;-56
2023/10/16 14:17:02;;;;;;;6.03;1.23;;;14.40;99.90;;;;;;5070355;28;20040;-53
2023/10/16 14:19:32;;;;;;;4.28;1.17;;;14.40;99.90;;;;;;5070385;28;20044;-55
2023/10/16 14:21:58;;;;;;;6.30;1.17;;;14.30;99.90;;;;;;5069295;28;20033;-55
2023/10/16 14:24:26;;;;;;;6.68;1.20;;;14.30;99.90;;;;;;5070643;28;20070;-54
2023/10/16 14:26:56;;;;;;;4.85;1.25;;;14.30;99.90;;;;;;5070447;28;20047;-55
2023/10/16 14:29:23;;;;;;;4.93;1.10;;;14.30;99.90;;;;;;5069363;28;20048;-55
2023/10/16 14:31:50;;;;;;;6.05;1.10;;;14.30;99.90;;;;;;5067527;28;20057;-55
2023/10/16 14:34:23;;;;;;;4.40;1.10;;;14.20;99.90;;;;;;5070480;28;20041;-53
2023/10/16 14:36:53;;;;;;;5.97;1.60;;;14.20;99.90;;;;;;5070488;28;20036;-54
2023/10/16 14:39:19;;;;;;;5.28;1.20;;;14.20;99.90;;;;;;5070306;28;20055;-57
2023/10/16 14:41:45;;;;;;;5.68;1.30;;;14.10;99.90;;;;;;5070434;28;20491;-56
2023/10/16 14:44:11;;;;;;;5.75;0.80;;;14.10;99.90;;;;;;5068698;28;20124;-55
2023/10/16 14:46:38;;;;;;;6.20;1.10;;;14.00;99.90;;;;;;5069386;28;20068;-56
2023/10/16 14:49:08;;;;;;;6.28;1.17;;;14.00;99.90;;;;;;5070302;28;20040;-56
2023/10/16 14:51:38;;;;;;;5.85;1.25;;;14.00;99.90;;;;;;5070105;28;20766;-56
2023/10/16 14:54:06;;;;;;;5.20;1.20;;;14.00;99.90;;;;;;5068992;28;20054;-56
2023/10/16 14:56:36;;;;;;;3.75;0.90;;;13.90;99.90;;;;;;5068129;28;20042;-57
2023/10/16 14:59:05;;;;;;;5.45;0.75;;;13.90;99.90;;;;;;5069324;28;20151;-56
2023/10/16 15:01:33;;;;;;;5.13;1.05;;;13.90;99.90;;;;;;5069446;28;20083;-56
2023/10/16 15:03:59;;;;;;;4.47;0.82;;;13.90;99.90;;;;;;5069280;28;20039;-57
2023/10/16 15:06:24;;;;;;;5.55;1.10;;;13.80;99.90;;;;;;5069853;28;20391;-57
2023/10/16 15:08:53;;;;;;;4.63;1.00;;;13.80;99.90;;;;;;5070800;28;20041;-56